createdAt,value
2023-04-22T00:02:23.487Z,5.40
2023-04-22T00:05:26.086Z,12.35
2023-04-22T00:08:28.632Z,7.30
2023-04-22T00:11:31.639Z,8.23
2023-04-22T00:14:34.021Z,8.82
2023-04-22T00:17:36.544Z,5.88
2023-04-22T00:20:39.358Z,8.48
2023-04-22T00:23:41.930Z,7.05
2023-04-22T00:26:44.232Z,7.25
2023-04-22T00:29:46.502Z,6.05
2023-04-22T00:32:49.271Z,7.57
2023-04-22T00:35:51.923Z,7.82
2023-04-22T00:38:54.396Z,7.95
2023-04-22T00:41:56.868Z,7.03
2023-04-22T00:44:59.440Z,6.93
2023-04-22T00:48:02.318Z,7.90
2023-04-22T00:51:05.493Z,6.20
2023-04-22T00:54:07.831Z,5.03
2023-04-22T00:57:10.317Z,6.60
2023-04-22T01:00:12.840Z,7.68
2023-04-22T01:03:16.326Z,10.88
2023-04-22T01:06:23.049Z,7.60
2023-04-22T01:09:25.408Z,8.05
2023-04-22T01:12:27.701Z,7.90
2023-04-22T01:15:30.170Z,10.32
2023-04-22T01:18:33.156Z,6.97
2023-04-22T01:21:36.303Z,12.18
2023-04-22T01:24:38.786Z,7.43
2023-04-22T01:27:41.586Z,8.30
2023-04-22T01:30:44.346Z,8.85
2023-04-22T01:33:48.430Z,10.48
2023-04-22T01:39:53.339Z,11.48
2023-04-22T01:42:55.968Z,9.68
2023-04-22T01:45:58.928Z,8.63
2023-04-22T01:49:01.224Z,9.93
2023-04-22T01:52:03.568Z,11.57
2023-04-22T01:55:07.343Z,8.60
2023-04-22T01:58:09.723Z,10.55
2023-04-22T02:01:13.351Z,11.38
2023-04-22T02:04:15.887Z,6.97
2023-04-22T02:07:18.283Z,10.30
2023-04-22T02:10:21.100Z,9.20
2023-04-22T02:13:23.546Z,8.63
2023-04-22T02:16:25.904Z,8.77
2023-04-22T02:19:28.832Z,10.93
2023-04-22T02:22:31.907Z,8.43
2023-04-22T02:25:34.429Z,7.93
2023-04-22T02:28:36.780Z,11.18
2023-04-22T02:31:39.237Z,12.95
2023-04-22T02:34:41.794Z,11.77
2023-04-22T02:37:44.231Z,13.02
2023-04-22T02:40:46.662Z,13.20
2023-04-22T02:43:49.707Z,13.27
2023-04-22T02:46:52.082Z,10.95
2023-04-22T02:49:54.454Z,12.93
2023-04-22T02:52:57.070Z,12.65
2023-04-22T02:55:59.494Z,13.88
2023-04-22T02:59:01.957Z,13.95
2023-04-22T03:02:06.697Z,13.20
2023-04-22T03:05:27.974Z,13.07
2023-04-22T03:08:30.460Z,12.75
2023-04-22T03:11:32.925Z,11.18
2023-04-22T03:14:35.413Z,14.30
2023-04-22T03:17:37.739Z,12.48
2023-04-22T03:20:44.572Z,14.80
2023-04-22T03:23:46.937Z,10.85
2023-04-22T03:26:49.478Z,10.35
2023-04-22T03:29:51.765Z,10.90
2023-04-22T03:32:54.287Z,11.18
2023-04-22T03:36:06.158Z,12.30
2023-04-22T03:39:08.501Z,12.05
2023-04-22T03:42:11.853Z,11.15
2023-04-22T03:45:22.156Z,13.20
2023-04-22T03:48:40.626Z,11.85
2023-04-22T03:51:53.547Z,11.15
2023-04-22T03:54:59.161Z,10.75
2023-04-22T03:58:01.953Z,10.40
2023-04-22T04:01:05.323Z,11.10
2023-04-22T04:04:08.175Z,11.85
2023-04-22T04:07:16.885Z,11.98
2023-04-22T04:10:19.366Z,11.95
2023-04-22T04:13:23.219Z,12.57
2023-04-22T04:16:45.680Z,10.38
2023-04-22T04:19:54.363Z,11.60
2023-04-22T04:22:57.753Z,7.57
2023-04-22T04:26:03.058Z,11.60
2023-04-22T04:29:06.405Z,9.80
2023-04-22T04:32:10.138Z,12.23
2023-04-22T04:35:16.175Z,11.95
2023-04-22T04:38:23.137Z,9.65
2023-04-22T04:41:28.330Z,10.48
2023-04-22T04:44:31.997Z,11.10
2023-04-22T04:47:37.492Z,10.15
2023-04-22T04:50:50.496Z,18.05
2023-04-22T04:53:53.107Z,12.95
2023-04-22T04:56:57.391Z,9.82
2023-04-22T05:00:01.704Z,10.43
2023-04-22T05:03:04.390Z,9.75
2023-04-22T05:09:12.906Z,10.20
2023-04-22T05:12:16.631Z,6.78
2023-04-22T05:15:19.288Z,10.57
2023-04-22T05:18:22.836Z,18.83
2023-04-22T05:21:25.360Z,13.27
2023-04-22T05:24:27.852Z,9.30
2023-04-22T05:27:31.827Z,11.02
2023-04-22T05:30:35.087Z,10.05
2023-04-22T05:33:37.381Z,6.75
2023-04-22T05:36:41.076Z,10.48
2023-04-22T05:39:45.034Z,8.20
2023-04-22T05:42:47.538Z,10.43
2023-04-22T05:45:50.180Z,6.90
2023-04-22T05:48:55.451Z,10.32
2023-04-22T05:52:16.779Z,28.63
2023-04-22T05:55:30.678Z,5.32
2023-04-22T05:58:33.242Z,14.77
2023-04-22T06:01:42.172Z,18.90
2023-04-22T06:04:46.038Z,10.15
2023-04-22T06:07:49.121Z,8.07
2023-04-22T06:10:51.512Z,6.78
2023-04-22T06:13:54.188Z,35.72
2023-04-22T06:16:56.884Z,15.00
2023-04-22T06:19:59.299Z,7.35
2023-04-22T06:23:02.085Z,54.85
2023-04-22T06:26:05.084Z,8.60
2023-04-22T06:29:08.422Z,15.90
2023-04-22T06:32:13.486Z,7.70
2023-04-22T06:35:17.886Z,5.30
2023-04-22T06:38:20.650Z,8.23
2023-04-22T06:41:44.478Z,10.25
2023-04-22T06:45:05.593Z,5.00
2023-04-22T06:48:14.609Z,12.13
2023-04-22T06:51:39.718Z,7.85
2023-04-22T06:54:42.841Z,10.93
2023-04-22T06:57:45.390Z,6.72
2023-04-22T07:00:48.503Z,5.90
2023-04-22T07:03:51.180Z,8.93
2023-04-22T07:06:55.508Z,18.27
2023-04-22T07:09:58.158Z,7.72
2023-04-22T07:13:05.459Z,13.65
2023-04-22T07:16:07.928Z,9.40
2023-04-22T07:19:10.445Z,7.10
2023-04-22T07:22:12.865Z,6.97
2023-04-22T07:25:15.769Z,8.80
2023-04-22T07:28:18.462Z,5.45
2023-04-22T07:31:20.931Z,4.22
2023-04-22T07:34:23.298Z,4.85
2023-04-22T07:37:25.968Z,12.93
2023-04-22T07:40:28.386Z,7.82
2023-04-22T07:43:30.969Z,7.32
2023-04-22T07:46:33.337Z,6.28
2023-04-22T07:49:35.703Z,9.60
2023-04-22T07:52:38.126Z,11.55
2023-04-22T07:55:40.437Z,11.52
2023-04-22T07:58:43.128Z,19.80
2023-04-22T08:01:46.720Z,8.18
2023-04-22T08:04:49.195Z,11.87
2023-04-22T08:07:51.638Z,10.32
2023-04-22T08:10:54.550Z,4.75
2023-04-22T08:13:56.922Z,8.40
2023-04-22T08:16:59.206Z,7.35
2023-04-22T08:20:01.617Z,5.55
2023-04-22T08:23:03.982Z,10.15
2023-04-22T08:26:08.347Z,6.35
2023-04-22T08:32:12.814Z,4.47
2023-04-22T08:35:15.181Z,8.80
2023-04-22T08:38:17.454Z,7.20
2023-04-22T08:41:19.910Z,12.13
2023-04-22T08:44:23.310Z,4.05
2023-04-22T08:47:26.684Z,25.08
2023-04-22T08:50:30.211Z,9.57
2023-04-22T08:53:32.684Z,5.40
2023-04-22T08:56:35.810Z,3.42
2023-04-22T08:59:39.289Z,5.28
2023-04-22T09:02:45.227Z,7.45
2023-04-22T09:05:48.228Z,5.50
2023-04-22T09:08:50.848Z,17.98
2023-04-22T09:11:53.163Z,4.20
2023-04-22T09:14:55.924Z,5.97
2023-04-22T09:17:58.776Z,9.63
2023-04-22T09:21:01.241Z,13.27
2023-04-22T09:24:03.966Z,5.35
2023-04-22T09:27:06.339Z,6.13
2023-04-22T09:30:10.140Z,4.68
2023-04-22T09:33:13.975Z,2.40
2023-04-22T09:36:16.290Z,30.92
2023-04-22T09:39:18.519Z,16.65
2023-04-22T09:42:22.085Z,10.02
2023-04-22T09:45:38.931Z,3.93
2023-04-22T09:48:45.478Z,3.25
2023-04-22T09:51:49.787Z,5.38
2023-04-22T09:57:55.899Z,4.00
2023-04-22T10:00:59.651Z,5.40
2023-04-22T10:04:02.064Z,3.88
2023-04-22T10:07:04.626Z,4.85
2023-04-22T10:10:10.155Z,2.92
2023-04-22T10:13:12.656Z,5.03
2023-04-22T10:16:15.486Z,19.02
2023-04-22T10:19:22.295Z,7.55
2023-04-22T10:22:24.730Z,6.93
2023-04-22T10:25:27.878Z,5.65
2023-04-22T10:28:30.887Z,9.90
2023-04-22T10:31:33.275Z,4.43
2023-04-22T10:34:39.062Z,6.55
2023-04-22T10:37:42.808Z,6.82
2023-04-22T10:41:00.940Z,15.25
2023-04-22T10:44:07.584Z,5.68
2023-04-22T10:47:10.133Z,4.65
2023-04-22T10:50:18.174Z,5.03
2023-04-22T10:53:37.842Z,4.03
2023-04-22T10:57:02.298Z,3.88
2023-04-22T11:00:17.879Z,3.00
2023-04-22T11:03:26.938Z,3.35
2023-04-22T11:06:30.478Z,6.32
2023-04-22T11:09:32.844Z,2.80
2023-04-22T11:12:43.906Z,3.58
2023-04-22T11:15:51.297Z,4.97
2023-04-22T11:18:53.748Z,3.42
2023-04-22T11:21:56.318Z,4.30
2023-04-22T11:25:01.121Z,2.95
2023-04-22T11:28:03.971Z,4.47
2023-04-22T11:31:10.017Z,2.35
2023-04-22T11:34:13.107Z,6.63
2023-04-22T11:37:19.953Z,3.28
2023-04-22T11:40:46.161Z,3.42
2023-04-22T11:43:49.684Z,16.67
2023-04-22T11:46:51.966Z,2.15
2023-04-22T11:50:09.476Z,2.95
2023-04-22T11:53:16.170Z,2.92
2023-04-22T11:56:18.588Z,4.75
2023-04-22T11:59:20.893Z,2.33
2023-04-22T12:02:24.813Z,2.17
2023-04-22T12:05:57.655Z,4.25
2023-04-22T12:09:01.206Z,6.85
2023-04-22T12:12:06.516Z,6.77
2023-04-22T12:15:13.750Z,4.72
2023-04-22T12:18:16.249Z,2.33
2023-04-22T12:21:23.903Z,9.05
2023-04-22T12:24:29.994Z,5.38
2023-04-22T12:27:32.420Z,5.57
2023-04-22T12:30:34.816Z,2.67
2023-04-22T12:33:38.602Z,5.65
2023-04-22T12:36:41.323Z,3.55
2023-04-22T12:39:43.797Z,7.68
2023-04-22T12:42:46.110Z,5.82
2023-04-22T12:45:48.482Z,4.15
2023-04-22T12:48:51.712Z,7.25
2023-04-22T12:51:54.246Z,2.13
2023-04-22T12:54:56.604Z,8.43
2023-04-22T12:57:59.100Z,2.25
2023-04-22T13:01:01.453Z,4.15
2023-04-22T13:04:03.864Z,14.65
2023-04-22T13:07:06.330Z,2.70
2023-04-22T13:10:10.765Z,3.03
2023-04-22T13:16:21.489Z,5.28
2023-04-22T13:19:25.896Z,6.38
2023-04-22T13:25:30.788Z,3.55
2023-04-22T13:28:33.181Z,5.45
2023-04-22T13:31:35.521Z,5.55
2023-04-22T13:34:39.659Z,6.68
2023-04-22T13:37:42.007Z,36.33
2023-04-22T13:40:44.531Z,24.10
2023-04-22T13:43:46.930Z,4.22
2023-04-22T13:46:49.523Z,6.28
2023-04-22T13:49:51.832Z,7.45
2023-04-22T13:52:54.458Z,3.10
2023-04-22T13:55:56.867Z,4.85
2023-04-22T13:58:59.638Z,11.23
2023-04-22T14:02:02.006Z,5.65
2023-04-22T14:05:05.463Z,4.28
2023-04-22T14:08:07.765Z,7.17
2023-04-22T14:11:10.474Z,3.78
2023-04-22T14:14:12.801Z,9.98
2023-04-22T14:17:15.118Z,3.20
2023-04-22T14:20:17.643Z,2.50
2023-04-22T14:23:20.126Z,2.58
2023-04-22T14:26:22.449Z,2.25
2023-04-22T14:29:25.149Z,2.72
2023-04-22T14:32:27.995Z,3.90
2023-04-22T14:35:30.400Z,2.80
2023-04-22T14:38:32.848Z,3.42
2023-04-22T14:41:35.562Z,2.22
2023-04-22T14:44:38.010Z,4.50
2023-04-22T14:47:40.387Z,2.60
2023-04-22T14:50:43.787Z,6.97
2023-04-22T14:53:46.431Z,8.70
2023-04-22T14:56:48.758Z,3.42
2023-04-22T14:59:51.158Z,6.13
2023-04-22T15:02:55.140Z,6.03
2023-04-22T15:05:58.137Z,6.43
2023-04-22T15:09:00.641Z,4.40
2023-04-22T15:12:05.983Z,4.07
2023-04-22T15:15:08.832Z,6.95
2023-04-22T15:18:11.744Z,5.40
2023-04-22T15:21:14.052Z,11.70
2023-04-22T15:24:16.444Z,16.25
2023-04-22T15:27:19.469Z,3.92
2023-04-22T15:30:21.944Z,5.60
2023-04-22T15:33:24.321Z,29.20
2023-04-22T15:36:26.780Z,5.60
2023-04-22T15:39:29.114Z,9.43
2023-04-22T15:42:31.396Z,9.80
2023-04-22T15:45:34.894Z,7.72
2023-04-22T15:48:37.163Z,11.77
2023-04-22T15:51:39.474Z,7.75
2023-04-22T15:54:41.823Z,9.50
2023-04-22T15:57:44.122Z,7.63
2023-04-22T16:00:46.744Z,4.38
2023-04-22T16:03:49.497Z,6.05
2023-04-22T16:06:51.975Z,6.72
2023-04-22T16:09:54.434Z,9.35
2023-04-22T16:12:56.759Z,5.55
2023-04-22T16:15:59.203Z,7.10
2023-04-22T16:19:01.643Z,14.95
2023-04-22T16:22:04.014Z,10.45
2023-04-22T16:25:07.054Z,10.85
2023-04-22T16:28:10.533Z,7.72
2023-04-22T16:31:13.848Z,10.20
2023-04-22T16:34:16.295Z,11.45
2023-04-22T16:37:18.992Z,28.00
2023-04-22T16:40:21.363Z,19.35
2023-04-22T16:43:23.863Z,13.82
2023-04-22T16:46:26.296Z,18.70
2023-04-22T16:49:28.687Z,15.75
2023-04-22T16:52:31.298Z,9.57
2023-04-22T16:55:36.316Z,18.27
2023-04-22T16:58:39.232Z,13.00
2023-04-22T17:01:42.263Z,29.02
2023-04-22T17:04:44.796Z,37.08
2023-04-22T17:07:47.121Z,22.00
2023-04-22T17:10:49.473Z,13.38
2023-04-22T17:13:52.100Z,20.08
2023-04-22T17:16:54.725Z,41.40
2023-04-22T17:19:57.162Z,24.58
2023-04-22T17:22:59.593Z,18.17
2023-04-22T17:26:02.170Z,16.98
2023-04-22T17:29:04.625Z,22.65
2023-04-22T17:32:07.167Z,23.10
2023-04-22T17:35:10.480Z,24.05
2023-04-22T17:38:14.192Z,15.65
2023-04-22T17:41:18.627Z,16.52
2023-04-22T17:44:21.937Z,13.32
2023-04-22T17:47:24.772Z,29.45
2023-04-22T17:50:27.146Z,18.73
2023-04-22T17:53:29.583Z,31.70
2023-04-22T17:56:32.009Z,32.30
2023-04-22T17:59:34.597Z,48.35
2023-04-22T18:02:37.077Z,54.40
2023-04-22T18:05:43.238Z,40.00
2023-04-22T18:08:45.812Z,18.13
2023-04-22T18:11:48.248Z,16.45
2023-04-22T18:14:50.783Z,12.80
2023-04-22T18:17:53.357Z,15.50
2023-04-22T18:20:55.756Z,9.68
2023-04-22T18:23:58.662Z,16.30
2023-04-22T18:27:01.364Z,12.70
2023-04-22T18:30:04.075Z,10.27
2023-04-22T18:33:06.661Z,13.35
2023-04-22T18:36:09.344Z,10.02
2023-04-22T18:39:11.872Z,11.90
2023-04-22T18:42:14.235Z,10.45
2023-04-22T18:45:16.957Z,8.18
2023-04-22T18:48:20.417Z,14.38
2023-04-22T18:51:22.890Z,10.33
2023-04-22T18:54:25.564Z,15.98
2023-04-22T18:57:27.965Z,16.23
2023-04-22T19:00:30.539Z,18.65
2023-04-22T19:03:33.067Z,23.35
2023-04-22T19:06:35.656Z,26.52
2023-04-22T19:09:38.205Z,43.78
2023-04-22T19:12:41.764Z,36.35
2023-04-22T19:15:44.198Z,51.10
2023-04-22T19:18:46.560Z,49.15
2023-04-22T19:21:48.833Z,111.65
2023-04-22T19:24:51.461Z,121.80
2023-04-22T19:27:53.930Z,77.75
2023-04-22T19:30:56.228Z,50.00
2023-04-22T19:33:58.744Z,27.23
2023-04-22T19:37:03.005Z,25.08
2023-04-22T19:40:05.708Z,48.88
2023-04-22T19:43:08.135Z,82.10
2023-04-22T19:46:10.559Z,56.50
2023-04-22T19:49:13.442Z,39.75
2023-04-22T19:52:16.320Z,38.08
2023-04-22T19:55:19.782Z,45.00
2023-04-22T19:58:22.436Z,36.63
2023-04-22T20:01:25.163Z,46.95
2023-04-22T20:04:28.122Z,35.80
2023-04-22T20:07:31.428Z,28.13
2023-04-22T20:10:34.004Z,35.38
2023-04-22T20:13:36.619Z,42.35
2023-04-22T20:16:39.479Z,61.38
2023-04-22T20:19:42.094Z,56.10
2023-04-22T20:22:46.454Z,58.10
2023-04-22T20:25:49.659Z,64.15
2023-04-22T20:28:53.272Z,29.02
2023-04-22T20:31:56.185Z,34.83
2023-04-22T20:34:58.928Z,52.20
2023-04-22T20:38:02.709Z,48.25
2023-04-22T20:41:06.254Z,28.52
2023-04-22T20:44:08.649Z,42.67
2023-04-22T20:47:11.432Z,48.50
2023-04-22T20:50:14.064Z,61.38
2023-04-22T20:53:16.625Z,41.75
2023-04-22T20:56:21.518Z,35.72
2023-04-22T20:59:24.019Z,26.52
2023-04-22T21:02:26.982Z,25.00
2023-04-22T21:05:29.504Z,31.70
2023-04-22T21:08:33.509Z,46.72
2023-04-22T21:11:36.307Z,42.22
2023-04-22T21:14:43.167Z,59.33
2023-04-22T21:17:52.050Z,66.25
2023-04-22T21:20:57.106Z,49.10
2023-04-22T21:24:01.453Z,48.85
2023-04-22T21:30:06.985Z,19.17
2023-04-22T21:33:09.363Z,16.35
2023-04-22T21:36:11.730Z,18.77
2023-04-22T21:39:14.417Z,44.55
2023-04-22T21:42:16.707Z,26.92
2023-04-22T21:45:19.198Z,16.45
2023-04-22T21:48:21.486Z,22.38
2023-04-22T21:51:23.880Z,36.95
2023-04-22T21:54:26.232Z,25.23
2023-04-22T21:57:28.583Z,34.00
2023-04-22T22:00:31.838Z,24.08
2023-04-22T22:03:36.320Z,23.30
2023-04-22T22:06:38.882Z,26.33
2023-04-22T22:09:43.897Z,15.82
2023-04-22T22:12:47.091Z,19.80
2023-04-22T22:15:49.696Z,15.73
2023-04-22T22:18:52.365Z,19.02
2023-04-22T22:21:54.689Z,22.00
2023-04-22T22:24:57.060Z,20.35
2023-04-22T22:27:59.698Z,22.85
2023-04-22T22:31:02.356Z,23.40
2023-04-22T22:34:04.661Z,22.95
2023-04-22T22:37:07.110Z,25.23
2023-04-22T22:40:10.236Z,24.05
2023-04-22T22:43:13.617Z,19.02
2023-04-22T22:46:16.102Z,19.07
2023-04-22T22:49:18.469Z,21.63
2023-04-22T22:52:20.944Z,25.67
2023-04-22T22:55:23.344Z,29.35
2023-04-22T22:58:26.015Z,26.10
2023-04-22T23:01:28.486Z,21.45
2023-04-22T23:04:31.022Z,23.42
2023-04-22T23:07:34.054Z,25.83
2023-04-22T23:10:36.378Z,27.42
2023-04-22T23:13:38.795Z,18.75
2023-04-22T23:16:41.170Z,39.50
2023-04-22T23:19:44.807Z,24.50
2023-04-22T23:22:48.635Z,22.52
2023-04-22T23:25:51.559Z,18.30
2023-04-22T23:28:54.070Z,18.60
2023-04-22T23:31:56.535Z,24.15
2023-04-22T23:35:01.990Z,19.25
2023-04-22T23:38:04.831Z,19.00
2023-04-22T23:41:07.156Z,28.05
2023-04-22T23:44:09.490Z,23.00
2023-04-22T23:47:12.984Z,24.35
2023-04-22T23:50:16.368Z,16.20
2023-04-22T23:53:18.771Z,23.25
2023-04-22T23:56:22.945Z,23.95
2023-04-22T23:59:25.666Z,30.70
